Kirs, Russia
Current Conditions -  °F | °C
As of 1:30 PM on Sunday 26 Oct 2014 (Local Time) from UUYY Reporting Station
Overcast Overcast  
Wind Chill: 25°   Ceiling: 6600
Heat Index: 25°   Visibility: 6mi
Dew Point: 14°   Wind: 0mph
Humidity: 64%   Direction: NA
Pressure: 30.36"   Gusts: NA
Location:  59.33°N, 52.27°E
Report Text: UUYY 260930Z 00000MPS 9999 SCT021 BKN066 OVC200 M04/M10 Q1028 NOSIG 0182//49 RMK QFE762/1016
Loading
Personal Weather Stations






























Interactive Weather Map
Tropical Storm Tracking
New forecast layout! Learn more

10-Day Weather Forecast

Advertisements
Track Severe Weather on mobile